Time;durP1;ratioP1;P1;durP2;ratioP2;P2;SDS_P1;SDS_P2;PMS_P1;PMS_P2;Temp;Humidity;BMP_temperature;BMP_pressure;BME280_temperature;BME280_humidity;BME280_pressure;Samples;Min_cycle;Max_cycle;Signal;HPM_P1;HPM_P2
2022/04/30 00:00:00;;;;;;;;;31.00;22.50;;;;;13.01;49.51;102310.47;5039241;28;45447;-38
2022/04/30 00:02:26;;;;;;;;;35.25;26.00;;;;;12.95;49.19;102298.47;5039559;28;45448;-40
2022/04/30 00:04:52;;;;;;;;;32.75;27.75;;;;;12.95;49.64;102306.47;5039271;28;45686;-41
2022/04/30 00:07:19;;;;;;;;;30.25;25.25;;;;;12.91;49.53;102307.69;5039184;28;45465;-40
2022/04/30 00:09:46;;;;;;;;;35.00;28.25;;;;;12.90;49.79;102306.00;5039473;28;45342;-39
2022/04/30 00:12:12;;;;;;;;;31.00;25.50;;;;;12.88;49.36;102299.09;5039258;28;45525;-42
2022/04/30 00:14:39;;;;;;;;;40.75;28.50;;;;;12.83;50.17;102290.59;5038986;28;46160;-39
2022/04/30 00:17:05;;;;;;;;;46.00;31.25;;;;;12.84;50.06;102300.28;5039044;28;45320;-39
2022/04/30 00:19:31;;;;;;;;;36.75;28.00;;;;;12.80;50.36;102304.19;5039019;28;45314;-40
2022/04/30 00:21:57;;;;;;;;;32.50;28.50;;;;;12.78;49.92;102293.63;5039345;28;45226;-41
2022/04/30 00:24:24;;;;;;;;;40.00;32.25;;;;;12.76;50.10;102290.22;5038905;28;45979;-39
2022/04/30 00:26:50;;;;;;;;;39.75;26.75;;;;;12.75;50.54;102301.88;5038620;28;45313;-41
2022/04/30 00:29:16;;;;;;;;;55.75;38.50;;;;;12.71;50.55;102290.59;5038982;28;45288;-39
2022/04/30 00:31:43;;;;;;;;;46.75;29.50;;;;;12.71;50.68;102301.28;5038830;28;45297;-39
2022/04/30 00:34:09;;;;;;;;;44.50;36.75;;;;;12.67;50.51;102302.50;5038751;28;46237;-40
2022/04/30 00:36:35;;;;;;;;;43.75;34.75;;;;;12.64;51.15;102308.09;5038613;28;45364;-40
2022/04/30 00:39:01;;;;;;;;;36.25;33.00;;;;;12.60;51.68;102314.66;5038820;28;45349;-39
2022/04/30 00:41:27;;;;;;;;;40.25;29.00;;;;;12.56;51.70;102318.53;5038957;28;45445;-40
2022/04/30 00:43:54;;;;;;;;;44.50;37.75;;;;;12.53;51.36;102321.44;5038596;28;46277;-40
2022/04/30 00:46:23;;;;;;;;;41.00;30.00;;;;;12.46;51.90;102318.38;5038616;28;45364;-41
2022/04/30 00:48:50;;;;;;;;;42.25;32.25;;;;;12.47;52.00;102327.25;5038663;28;45494;-44
2022/04/30 00:51:19;;;;;;;;;41.25;34.75;;;;;12.42;52.30;102319.59;5038625;28;45520;-39
2022/04/30 00:53:52;;;;;;;;;56.50;38.75;;;;;12.38;52.14;102318.13;5038356;28;46273;-41
2022/04/30 00:56:32;;;;;;;;;41.75;35.25;;;;;12.35;51.99;102314.88;5038119;28;45283;-43
2022/04/30 00:59:02;;;;;;;;;53.75;38.75;;;;;12.28;52.77;102313.66;5038422;28;45453;-42
2022/04/30 01:01:31;;;;;;;;;42.25;36.25;;;;;12.25;53.42;102320.06;5038421;28;45362;-39
2022/04/30 01:03:57;;;;;;;;;38.25;30.00;;;;;12.20;53.20;102308.91;5038082;28;45373;-40
2022/04/30 01:06:51;;;;;;;;;52.75;36.00;;;;;12.16;53.22;102302.97;5036892;28;45339;-41
2022/04/30 01:09:20;;;;;;;;;39.50;32.75;;;;;12.16;52.93;102302.13;5038213;28;45262;-42
2022/04/30 01:11:48;;;;;;;;;41.75;28.75;;;;;12.11;53.87;102302.47;5038257;28;45364;-39
2022/04/30 01:14:14;;;;;;;;;43.50;32.75;;;;;12.09;54.08;102311.53;5038285;28;45575;-44
2022/04/30 01:16:43;;;;;;;;;48.25;35.00;;;;;12.04;54.09;102301.22;5037964;28;45364;-41
2022/04/30 01:19:13;;;;;;;;;35.50;27.75;;;;;12.01;54.72;102303.28;5038319;28;45411;-43
2022/04/30 01:21:42;;;;;;;;;43.75;27.50;;;;;11.95;54.12;102293.94;5038589;28;45262;-39
2022/04/30 01:24:09;;;;;;;;;32.50;31.25;;;;;11.92;54.28;102292.34;5036777;28;46041;-38
2022/04/30 01:26:36;;;;;;;;;38.00;31.00;;;;;11.89;54.64;102289.94;5037937;28;45388;-44
2022/04/30 01:29:02;;;;;;;;;48.75;33.25;;;;;11.88;54.46;102290.91;5038246;28;45364;-40
2022/04/30 01:39:39;;;;;;;;;45.50;34.00;;;;;11.80;54.96;102285.28;5037897;28;45294;-38
2022/04/30 01:42:11;;;;;;;;;43.00;30.50;;;;;11.75;55.41;102282.09;5038100;28;45398;-39
2022/04/30 01:44:39;;;;;;;;;33.75;29.25;;;;;11.75;54.60;102284.75;5037616;28;46961;-45
2022/04/30 01:47:05;;;;;;;;;42.75;29.50;;;;;11.72;55.85;102285.03;5037684;28;45280;-42
2022/04/30 01:49:31;;;;;;;;;41.50;30.25;;;;;11.70;55.90;102282.44;5037783;28;45183;-42
2022/04/30 01:51:56;;;;;;;;;31.75;26.00;;;;;11.69;55.04;102278.09;5037869;28;45226;-44
2022/04/30 01:54:21;;;;;;;;;31.75;28.75;;;;;11.67;55.88;102282.69;5038310;28;45326;-43
2022/04/30 01:56:47;;;;;;;;;34.50;30.00;;;;;11.63;55.67;102269.69;5038486;28;45369;-39
2022/04/30 01:59:12;;;;;;;;;36.25;22.50;;;;;11.60;55.99;102265.47;5038194;28;45302;-39
2022/04/30 02:01:39;;;;;;;;;34.25;28.75;;;;;11.63;56.05;102275.03;5038281;28;45245;-41
2022/04/30 02:04:05;;;;;;;;;36.75;29.00;;;;;11.61;56.27;102275.16;5037455;28;46183;-39
2022/04/30 02:06:32;;;;;;;;;43.00;33.25;;;;;11.59;55.79;102269.09;5037401;28;45269;-40
2022/04/30 02:08:58;;;;;;;;;38.50;33.25;;;;;11.58;56.76;102264.72;5037711;28;45440;-42
2022/04/30 02:11:24;;;;;;;;;37.00;29.00;;;;;11.55;56.69;102264.97;5037508;28;45380;-41
2022/04/30 02:13:53;;;;;;;;;39.75;30.25;;;;;11.53;56.55;102266.88;5037256;28;45330;-39
2022/04/30 02:16:23;;;;;;;;;38.00;28.50;;;;;11.54;56.68;102263.25;5037155;28;45218;-39
2022/04/30 02:18:50;;;;;;;;;36.50;32.75;;;;;11.54;56.56;102259.75;5037283;28;45312;-45
2022/04/30 02:21:20;;;;;;;;;36.25;31.50;;;;;11.52;56.82;102254.53;5037352;28;45464;-39
2022/04/30 02:23:47;;;;;;;;;34.00;30.25;;;;;11.53;56.25;102264.22;5037079;28;46118;-41
2022/04/30 02:26:14;;;;;;;;;36.25;29.00;;;;;11.51;56.94;102258.16;5037210;28;45422;-43
2022/04/30 02:28:39;;;;;;;;;35.25;29.75;;;;;11.52;56.27;102259.00;5037032;28;45397;-39
2022/04/30 02:31:05;;;;;;;;;39.25;32.75;;;;;11.52;56.86;102257.19;5037221;28;45304;-44
2022/04/30 02:33:30;;;;;;;;;42.25;34.75;;;;;11.53;57.14;102256.22;5037003;28;46123;-41
2022/04/30 02:35:58;;;;;;;;;38.00;29.25;;;;;11.54;56.29;102262.41;5036886;28;45268;-45
2022/04/30 02:38:24;;;;;;;;;37.75;31.00;;;;;11.52;57.11;102259.00;5037069;28;45377;-42
2022/04/30 02:40:50;;;;;;;;;43.25;28.25;;;;;11.52;56.28;102259.88;5037056;28;45215;-42
2022/04/30 02:43:16;;;;;;;;;44.00;33.00;;;;;11.47;56.73;102254.03;5036468;28;47174;-40
2022/04/30 02:45:45;;;;;;;;;37.75;25.50;;;;;11.37;57.03;102250.34;5036551;28;45298;-42
2022/04/30 02:48:13;;;;;;;;;32.00;26.75;;;;;11.43;57.18;102255.22;5036988;28;45683;-40
2022/04/30 02:50:39;;;;;;;;;34.00;26.50;;;;;11.44;57.58;102256.91;5037240;28;45349;-45
2022/04/30 02:53:05;;;;;;;;;43.25;29.00;;;;;11.41;57.24;102262.47;5036780;28;46077;-39
2022/04/30 02:55:31;;;;;;;;;36.25;29.75;;;;;11.40;57.74;102255.44;5036493;28;45343;-39
2022/04/30 03:00:44;;;;;;;;;30.50;26.25;;;;;11.37;57.74;102245.03;5036934;28;45296;-41
2022/04/30 03:03:11;;;;;;;;;35.00;23.25;;;;;11.34;57.32;102250.59;5036575;28;45495;-38
2022/04/30 03:05:39;;;;;;;;;35.25;28.00;;;;;11.32;57.98;102249.84;5036409;28;45250;-39
2022/04/30 03:08:12;;;;;;;;;33.75;28.00;;;;;11.31;58.10;102254.34;5036702;28;45391;-40
2022/04/30 03:10:41;;;;;;;;;34.25;32.75;;;;;11.31;58.13;102251.66;5036793;28;45633;-39
2022/04/30 03:13:06;;;;;;;;;37.00;32.75;;;;;11.32;57.56;102247.19;5036261;28;46111;-42
2022/04/30 03:15:33;;;;;;;;;40.00;27.25;;;;;11.29;58.14;102247.41;5036413;28;45507;-45
2022/04/30 03:23:44;;;;;;;;;31.75;24.50;;;;;11.24;58.05;102255.75;5034101;28;45773;-40
2022/04/30 03:26:20;;;;;;;;;34.50;29.75;;;;;11.26;58.20;102252.97;5034017;28;45353;-40
2022/04/30 03:28:47;;;;;;;;;41.50;28.75;;;;;11.23;58.18;102251.38;5034528;28;45517;-41
2022/04/30 03:31:15;;;;;;;;;41.50;34.00;;;;;11.22;58.11;102252.34;5037747;28;45610;-39
2022/04/30 03:33:42;;;;;;;;;42.00;32.25;;;;;11.17;58.36;102244.72;5036954;28;45532;-40
2022/04/30 03:36:10;;;;;;;;;35.25;28.75;;;;;11.17;58.81;102246.53;5037059;28;45281;-42
2022/04/30 03:38:35;;;;;;;;;41.00;28.50;;;;;11.18;58.25;102248.22;5037470;28;45395;-42
2022/04/30 03:41:00;;;;;;;;;38.25;31.00;;;;;11.17;58.35;102239.38;5037752;28;45467;-42
2022/04/30 03:43:26;;;;;;;;;38.25;30.75;;;;;11.17;58.34;102244.72;5037454;28;46238;-46
2022/04/30 03:45:51;;;;;;;;;31.25;25.50;;;;;11.16;58.13;102248.31;5037415;28;45501;-41
2022/04/30 03:48:16;;;;;;;;;38.50;26.00;;;;;11.17;58.48;102244.72;5038055;28;45352;-42
2022/04/30 03:50:42;;;;;;;;;23.00;17.50;;;;;11.15;58.25;102238.63;5038017;28;45338;-43
2022/04/30 03:53:08;;;;;;;;;35.50;33.50;;;;;11.15;58.80;102245.78;5037203;28;45318;-39
2022/04/30 03:55:34;;;;;;;;;39.25;29.25;;;;;11.13;58.79;102242.38;5036796;28;45453;-38
2022/04/30 03:57:59;;;;;;;;;40.00;29.00;;;;;11.13;58.95;102240.56;5038550;28;45467;-39
2022/04/30 04:00:25;;;;;;;;;33.50;30.00;;;;;11.14;58.89;102239.59;5039306;28;45397;-40
2022/04/30 04:02:52;;;;;;;;;36.75;31.25;;;;;11.13;59.03;102237.06;5039351;28;45475;-44
2022/04/30 04:05:17;;;;;;;;;35.75;30.75;;;;;11.04;58.54;102227.94;5039190;28;45202;-39
2022/04/30 04:07:44;;;;;;;;;37.25;28.75;;;;;11.12;58.82;102236.19;5039280;28;45285;-40
2022/04/30 04:10:11;;;;;;;;;36.00;31.25;;;;;11.06;58.59;102228.66;5039552;28;45353;-39
2022/04/30 04:12:37;;;;;;;;;38.00;34.75;;;;;11.10;59.16;102242.59;5038943;28;45394;-39
2022/04/30 04:17:52;;;;;;;;;37.00;32.00;;;;;11.09;59.42;102243.56;5039125;28;45179;-45
2022/04/30 04:20:24;;;;;;;;;33.00;28.50;;;;;11.07;58.82;102240.16;5039316;28;45229;-38
2022/04/30 04:22:51;;;;;;;;;36.75;28.00;;;;;11.05;59.39;102242.94;5039047;28;47140;-42
2022/04/30 04:28:00;;;;;;;;;43.75;31.50;;;;;11.04;59.11;102243.03;5038970;28;45352;-44
2022/04/30 04:30:30;;;;;;;;;33.25;29.75;;;;;11.04;58.54;102249.25;5039081;28;45309;-42
2022/04/30 04:32:57;;;;;;;;;43.00;29.75;;;;;10.97;59.56;102242.66;5038842;28;46318;-37
2022/04/30 04:35:23;;;;;;;;;37.75;33.25;;;;;11.03;59.63;102246.69;5038692;28;45316;-39
2022/04/30 04:37:49;;;;;;;;;39.75;28.00;;;;;10.97;59.90;102235.53;5038879;28;45316;-38
2022/04/30 04:40:17;;;;;;;;;41.00;33.25;;;;;11.03;59.63;102244.00;5038623;28;45325;-42
2022/04/30 04:42:43;;;;;;;;;43.00;35.00;;;;;11.03;60.08;102252.00;5038806;28;46134;-38
2022/04/30 04:45:10;;;;;;;;;34.50;30.75;;;;;11.03;58.83;102244.84;5038636;28;45277;-41
2022/04/30 04:47:39;;;;;;;;;41.00;33.75;;;;;11.03;60.05;102246.69;5038560;28;45186;-39
2022/04/30 04:50:05;;;;;;;;;46.50;33.75;;;;;11.05;59.48;102258.09;5038604;28;45395;-39
2022/04/30 04:52:30;;;;;;;;;39.50;31.75;;;;;11.04;60.03;102257.25;5038372;28;46262;-40
2022/04/30 04:54:57;;;;;;;;;46.25;33.50;;;;;11.05;59.91;102260.75;5038341;28;45493;-40
2022/04/30 04:57:23;;;;;;;;;49.50;34.25;;;;;11.04;59.78;102270.56;5038850;28;45308;-39
2022/04/30 04:59:48;;;;;;;;;37.25;31.25;;;;;11.04;60.00;102269.66;5038554;28;45223;-39
2022/04/30 05:02:14;;;;;;;;;34.75;28.75;;;;;11.04;59.35;102273.22;5038461;28;45391;-39
2022/04/30 05:04:39;;;;;;;;;43.50;30.00;;;;;11.06;60.13;102278.41;5038514;28;45331;-39
2022/04/30 05:07:04;;;;;;;;;44.25;33.75;;;;;11.07;59.66;102274.78;5038352;28;45266;-40
2022/04/30 05:09:31;;;;;;;;;50.00;35.75;;;;;11.08;59.59;102272.03;5038789;28;45226;-41
2022/04/30 05:11:56;;;;;;;;;48.25;36.25;;;;;11.14;59.70;102273.38;5038284;28;47161;-44
2022/04/30 05:14:22;;;;;;;;;40.75;30.00;;;;;11.08;59.37;102255.16;5037908;28;45353;-43
2022/04/30 05:16:50;;;;;;;;;46.75;37.25;;;;;11.24;59.62;102274.38;5038480;28;45421;-39
2022/04/30 05:19:15;;;;;;;;;38.25;25.00;;;;;11.23;59.33;102270.88;5038569;28;45404;-41
2022/04/30 05:21:41;;;;;;;;;41.25;36.25;;;;;11.32;59.41;102284.47;5038162;28;45324;-41
2022/04/30 05:24:06;;;;;;;;;40.50;31.00;;;;;11.30;59.55;102283.75;5038402;28;45471;-39
2022/04/30 05:26:32;;;;;;;;;38.00;27.50;;;;;11.32;59.50;102287.16;5038160;28;45140;-39
2022/04/30 05:28:58;;;;;;;;;41.25;30.50;;;;;11.33;59.67;102284.34;5038304;28;45514;-41
2022/04/30 05:31:24;;;;;;;;;43.25;32.00;;;;;11.33;59.60;102291.50;5037728;28;47088;-44
2022/04/30 05:33:49;;;;;;;;;49.25;36.00;;;;;11.33;59.19;102296.84;5037722;28;45274;-46
2022/04/30 05:36:14;;;;;;;;;48.25;34.00;;;;;11.31;59.29;102291.63;5036692;28;45296;-42
2022/04/30 05:38:40;;;;;;;;;38.50;32.00;;;;;11.33;59.44;102302.16;5038198;28;45556;-39
2022/04/30 05:41:05;;;;;;;;;45.25;35.00;;;;;11.26;59.56;102285.78;5038071;28;46547;-40
2022/04/30 05:43:30;;;;;;;;;44.00;34.75;;;;;11.36;59.56;102302.78;5037855;28;45369;-40
2022/04/30 05:45:56;;;;;;;;;35.25;32.75;;;;;11.43;59.35;102309.38;5037723;28;45420;-40
2022/04/30 05:48:21;;;;;;;;;45.25;38.25;;;;;11.55;59.22;102304.09;5038230;28;45341;-39
2022/04/30 05:50:46;;;;;;;;;44.50;34.50;;;;;11.63;59.03;102299.91;5037735;28;45439;-40
2022/04/30 05:53:12;;;;;;;;;41.50;34.75;;;;;11.78;58.48;102305.03;5036984;28;45396;-40
2022/04/30 05:55:37;;;;;;;;;38.25;28.75;;;;;11.94;57.50;102308.25;5037806;28;45393;-40
2022/04/30 05:58:03;;;;;;;;;45.00;35.25;;;;;12.01;57.93;102311.28;5038116;28;45411;-41
2022/04/30 06:00:28;;;;;;;;;35.25;30.50;;;;;12.09;57.58;102308.88;5037958;28;45397;-45
2022/04/30 06:02:55;;;;;;;;;41.50;32.50;;;;;12.08;57.63;102302.69;5037794;28;45450;-41
2022/04/30 06:05:21;;;;;;;;;35.25;31.00;;;;;12.20;56.80;102314.25;5037988;28;45444;-40
2022/04/30 06:07:46;;;;;;;;;44.75;33.00;;;;;12.21;57.40;102322.13;5037781;28;45222;-41
2022/04/30 06:10:12;;;;;;;;;44.75;36.00;;;;;12.26;56.77;102324.44;5037421;28;46981;-40
2022/04/30 06:12:37;;;;;;;;;43.25;33.25;;;;;12.32;56.65;102320.47;5037967;28;45330;-42
2022/04/30 06:15:04;;;;;;;;;43.75;35.50;;;;;12.39;56.78;102327.03;5037964;28;45296;-42
2022/04/30 06:17:29;;;;;;;;;44.75;33.25;;;;;12.42;56.24;102313.41;5037569;28;45379;-40
2022/04/30 06:19:54;;;;;;;;;40.25;32.00;;;;;12.46;56.17;102325.56;5037033;28;45968;-40
2022/04/30 06:22:20;;;;;;;;;51.25;36.25;;;;;12.54;56.24;102332.97;5035924;28;45241;-45
2022/04/30 06:24:45;;;;;;;;;39.00;32.75;;;;;12.57;56.29;102330.91;5037243;28;45741;-40
2022/04/30 06:27:11;;;;;;;;;36.50;31.75;;;;;12.63;55.60;102334.91;5037373;28;45277;-46
2022/04/30 06:29:37;;;;;;;;;41.50;33.00;;;;;12.71;55.64;102332.47;5037175;28;47075;-42
2022/04/30 06:32:02;;;;;;;;;40.75;31.00;;;;;12.81;55.74;102332.59;5035476;28;45557;-41
2022/04/30 06:34:28;;;;;;;;;35.50;33.25;;;;;12.87;54.92;102327.63;5037136;28;45422;-40
2022/04/30 06:36:53;;;;;;;;;44.75;34.00;;;;;12.94;54.85;102327.97;5037113;28;45581;-45
2022/04/30 06:39:19;;;;;;;;;39.00;32.75;;;;;12.97;54.44;102328.56;5037028;28;45371;-42
2022/04/30 06:41:44;;;;;;;;;51.75;36.25;;;;;13.04;54.91;102323.59;5037066;28;45290;-41
2022/04/30 06:44:10;;;;;;;;;36.75;27.00;;;;;13.15;54.72;102330.75;5037197;28;45275;-39
2022/04/30 06:46:35;;;;;;;;;43.00;33.00;;;;;13.19;54.07;102333.03;5037121;28;45333;-38
2022/04/30 06:49:00;;;;;;;;;39.75;35.75;;;;;13.25;54.28;102323.69;5035535;28;48014;-41
2022/04/30 06:51:26;;;;;;;;;42.25;33.50;;;;;13.26;54.05;102320.03;5036921;28;45412;-39
2022/04/30 06:59:19;;;;;;;;;46.75;35.50;;;;;13.52;53.39;102343.78;5036738;28;45365;-38
2022/04/30 07:02:00;;;;;;;;;40.25;34.25;;;;;13.58;52.92;102333.44;5036494;28;45524;-37
2022/04/30 07:04:26;;;;;;;;;37.25;32.50;;;;;13.69;51.97;102325.38;5039549;28;45357;-39
2022/04/30 07:06:52;;;;;;;;;34.75;30.00;;;;;13.86;52.14;102331.09;5040388;28;45223;-38
2022/04/30 07:09:18;;;;;;;;;34.75;28.00;;;;;14.08;51.55;102347.06;5040196;28;47066;-38
2022/04/30 07:11:44;;;;;;;;;38.75;33.25;;;;;14.35;51.04;102340.31;5040362;28;45558;-38
2022/04/30 07:14:10;;;;;;;;;44.00;31.50;;;;;14.71;50.35;102344.34;5040234;28;45392;-38
2022/04/30 07:16:35;;;;;;;;;32.33;27.67;;;;;15.65;49.45;102345.69;5040037;28;45371;-38
2022/04/30 07:19:02;;;;;;;;;33.33;28.00;;;;;16.40;46.54;102349.41;5040083;28;45305;-40
2022/04/30 07:21:33;;;;;;;;;31.00;28.33;;;;;16.87;46.60;102330.59;5039983;28;45348;-39
2022/04/30 07:23:58;;;;;;;;;24.67;23.67;;;;;17.40;45.56;102346.00;5040170;28;45352;-43
2022/04/30 07:26:24;;;;;;;;;33.67;29.00;;;;;17.78;43.68;102340.47;5040139;28;45472;-39
2022/04/30 07:28:49;;;;;;;;;29.67;27.00;;;;;18.05;43.15;102340.38;5039893;28;46011;-43
2022/04/30 07:31:15;;;;;;;;;36.67;30.33;;;;;18.22;43.20;102337.78;5039772;28;45362;-38
2022/04/30 07:33:41;;;;;;;;;38.00;31.67;;;;;18.57;42.34;102345.75;5039889;28;45897;-41
2022/04/30 07:36:07;;;;;;;;;29.00;27.67;;;;;18.97;42.49;102344.28;5040225;28;45472;-39
2022/04/30 07:38:32;;;;;;;;;32.00;27.33;;;;;19.37;40.85;102340.00;5039604;28;47157;-39
2022/04/30 07:40:58;;;;;;;;;31.33;28.67;;;;;19.69;40.34;102341.94;5039438;28;45179;-40
2022/04/30 07:43:23;;;;;;;;;35.67;29.00;;;;;19.83;40.13;102343.13;5040047;28;45454;-39
2022/04/30 07:45:48;;;;;;;;;30.00;28.33;;;;;20.18;41.34;102350.00;5039860;28;45195;-40
2022/04/30 07:48:14;;;;;;;;;33.33;21.33;;;;;20.67;38.27;102356.19;5039523;28;45566;-39
2022/04/30 07:50:41;;;;;;;;;33.00;28.00;;;;;21.56;37.67;102354.06;5039500;28;45327;-40
2022/04/30 07:53:07;;;;;;;;;31.67;26.33;;;;;22.69;35.45;102347.78;5039517;28;45435;-40
2022/04/30 07:55:33;;;;;;;;;33.33;27.33;;;;;23.90;32.24;102347.09;5039766;28;45286;-40
2022/04/30 07:58:00;;;;;;;;;32.00;26.67;;;;;24.89;31.98;102340.63;5039284;28;45327;-41
2022/04/30 08:00:26;;;;;;;;;33.33;26.33;;;;;24.73;31.25;102338.25;5039137;28;45533;-45
2022/04/30 08:02:56;;;;;;;;;25.33;24.67;;;;;25.23;31.43;102353.34;5039154;28;45336;-41
2022/04/30 08:05:22;;;;;;;;;30.33;26.67;;;;;24.37;31.18;102344.72;5039561;28;45230;-41
2022/04/30 08:07:48;;;;;;;;;24.67;24.33;;;;;23.46;32.52;102349.13;5038985;28;47194;-44
2022/04/30 08:10:13;;;;;;;;;25.67;22.00;;;;;22.97;35.29;102349.84;5039040;28;45299;-41
2022/04/30 08:12:38;;;;;;;;;28.67;22.33;;;;;24.23;32.21;102341.09;5039281;28;45428;-40
2022/04/30 08:15:04;;;;;;;;;27.67;26.33;;;;;25.36;29.32;102338.91;5038848;28;45309;-40
2022/04/30 08:17:30;;;;;;;;;28.00;27.00;;;;;26.50;28.34;102340.63;5038779;28;45957;-38
2022/04/30 08:19:56;;;;;;;;;29.00;23.00;;;;;27.62;26.16;102336.53;5039041;28;45366;-44
2022/04/30 08:22:21;;;;;;;;;22.25;20.00;;;;;27.95;28.57;102338.22;5039129;28;45333;-40
2022/04/30 08:24:47;;;;;;;;;27.75;23.50;;;;;26.31;26.96;102339.63;5039241;28;45307;-41
2022/04/30 08:27:12;;;;;;;;;30.33;24.33;;;;;25.24;30.43;102346.00;5038672;28;46178;-40
2022/04/30 08:29:38;;;;;;;;;30.00;25.00;;;;;26.18;28.46;102332.28;5037310;28;45731;-41
2022/04/30 08:32:07;;;;;;;;;23.67;23.67;;;;;27.65;26.95;102335.28;5038957;28;45479;-40
2022/04/30 08:34:32;;;;;;;;;20.00;18.75;;;;;28.82;26.74;102333.50;5039009;28;45291;-40
2022/04/30 08:36:58;;;;;;;;;25.75;23.00;;;;;29.71;24.69;102322.78;5038506;28;47416;-39
2022/04/30 08:39:24;;;;;;;;;29.00;23.50;;;;;30.60;25.46;102330.91;5038718;28;45329;-40
2022/04/30 08:41:49;;;;;;;;;26.75;21.75;;;;;31.47;22.55;102331.53;5038809;28;45405;-41
2022/04/30 08:44:19;;;;;;;;;20.00;19.25;;;;;31.99;23.33;102327.75;5039086;28;45249;-42
2022/04/30 08:46:45;;;;;;;;;26.50;22.50;;;;;32.44;21.05;102323.97;5038238;28;46058;-40
2022/04/30 08:49:11;;;;;;;;;26.80;24.60;;;;;32.86;19.76;102326.16;5038469;28;45368;-40
2022/04/30 08:51:38;;;;;;;;;24.00;22.20;;;;;33.51;19.09;102322.47;5038713;28;45242;-41
2022/04/30 08:54:04;;;;;;;;;26.25;21.75;;;;;34.16;19.78;102317.69;5038734;28;45349;-40
2022/04/30 08:56:30;;;;;;;;;22.80;21.40;;;;;34.77;18.44;102315.25;5038409;28;46024;-41
2022/04/30 08:59:04;;;;;;;;;24.50;22.25;;;;;35.33;20.71;102320.91;5038324;28;45309;-39
2022/04/30 09:01:50;;;;;;;;;23.00;19.80;;;;;35.80;18.04;102308.72;5038229;28;45343;-39
2022/04/30 09:04:16;;;;;;;;;22.00;19.00;;;;;36.33;17.89;102308.34;5038577;28;45436;-40
2022/04/30 09:06:49;;;;;;;;;24.75;22.25;;;;;36.71;19.20;102313.19;5038202;28;45376;-40
2022/04/30 09:09:25;;;;;;;;;23.80;19.00;;;;;37.00;18.13;102311.66;5038059;28;45323;-38
2022/04/30 09:11:53;;;;;;;;;19.60;19.60;;;;;37.37;16.94;102303.59;5038273;28;45404;-41
2022/04/30 09:14:26;;;;;;;;;18.40;16.40;;;;;37.81;15.57;102313.78;5038451;28;45362;-41
2022/04/30 09:17:17;;;;;;;;;16.40;15.40;;;;;38.16;15.13;102303.41;5037966;28;45492;-44
2022/04/30 09:19:59;;;;;;;;;16.00;16.00;;;;;38.47;15.72;102306.66;5036033;28;45405;-40
2022/04/30 09:22:33;;;;;;;;;20.60;17.80;;;;;38.80;16.68;102302.06;5038244;28;45318;-40
2022/04/30 09:25:00;;;;;;;;;21.00;18.20;;;;;38.88;16.70;102292.22;5038584;28;45337;-41
2022/04/30 09:27:26;;;;;;;;;15.20;12.20;;;;;39.05;13.96;102298.06;5036879;28;46662;-40
2022/04/30 09:29:53;;;;;;;;;18.25;17.50;;;;;39.41;13.72;102292.78;5038272;28;45229;-40
2022/04/30 09:32:20;;;;;;;;;18.00;16.00;;;;;39.69;13.70;102283.69;5038942;28;45383;-41
2022/04/30 09:37:41;;;;;;;;;14.80;14.80;;;;;40.07;15.07;102289.88;5038354;28;45640;-41
2022/04/30 09:40:23;;;;;;;;;16.20;13.20;;;;;40.31;14.89;102296.09;5038203;28;45371;-40
2022/04/30 09:42:49;;;;;;;;;13.60;12.40;;;;;40.46;12.33;102285.78;5038987;28;45381;-41
2022/04/30 09:45:35;;;;;;;;;14.80;12.00;;;;;40.71;12.82;102292.75;5040335;28;45479;-41
2022/04/30 09:53:56;;;;;;;;;15.60;13.60;;;;;41.35;12.60;102305.44;5040036;28;46687;-40
2022/04/30 09:56:45;;;;;;;;;13.60;13.40;;;;;42.30;12.02;102285.53;5038146;28;45218;-43
2022/04/30 09:59:22;;;;;;;;;12.20;10.00;;;;;41.57;12.07;102293.44;5132454;27;45367;-40
2022/04/30 10:01:48;;;;;;;;;12.40;9.20;;;;;42.36;11.65;102295.44;5115154;27;45445;-39
2022/04/30 10:04:18;;;;;;;;;11.50;10.00;;;;;42.61;11.87;102288.22;5115324;27;45279;-40
2022/04/30 10:06:45;;;;;;;;;12.20;11.60;;;;;42.76;11.47;102284.13;5115374;27;45370;-41
2022/04/30 10:09:13;;;;;;;;;12.20;11.80;;;;;42.77;11.17;102280.22;5114993;27;46909;-41
2022/04/30 10:11:54;;;;;;;;;11.40;10.20;;;;;42.94;10.49;102286.94;5115117;27;45401;-43
2022/04/30 10:14:34;;;;;;;;;12.40;11.80;;;;;43.05;11.65;102280.69;5115121;27;45316;-40
2022/04/30 10:17:16;;;;;;;;;13.00;11.00;;;;;43.21;10.68;102288.59;5115037;27;45476;-41
2022/04/30 10:19:42;;;;;;;;;10.20;9.40;;;;;43.28;11.51;102275.72;5114625;27;46275;-41
2022/04/30 10:22:12;;;;;;;;;12.40;10.60;;;;;43.48;10.91;102273.38;5114767;27;45274;-40
2022/04/30 10:24:57;;;;;;;;;11.80;9.60;;;;;43.53;10.03;102250.78;5114976;27;45338;-44
2022/04/30 10:27:24;;;;;;;;;11.20;10.40;;;;;43.79;9.60;102259.09;5114937;27;45519;-41
2022/04/30 10:29:57;;;;;;;;;9.20;9.20;;;;;44.03;10.43;102264.09;5114603;27;47106;-41
2022/04/30 10:32:32;;;;;;;;;9.00;8.20;;;;;44.29;10.82;102261.97;5114814;27;45320;-42
2022/04/30 10:34:58;;;;;;;;;10.00;10.00;;;;;44.16;10.75;102256.56;5114762;27;45414;-41
2022/04/30 10:37:41;;;;;;;;;10.40;10.40;;;;;43.75;11.02;102264.53;5114873;27;45315;-44
2022/04/30 10:40:08;;;;;;;;;11.00;9.20;;;;;43.75;10.79;102260.91;5114380;27;46172;-41
2022/04/30 10:42:40;;;;;;;;;12.20;11.80;;;;;43.75;9.92;102256.13;5114431;27;45341;-43
2022/04/30 10:45:07;;;;;;;;;9.60;9.60;;;;;43.85;11.11;102254.94;5114724;27;45205;-42
2022/04/30 10:47:33;;;;;;;;;9.40;9.40;;;;;43.54;10.94;102247.66;5114920;27;45262;-41
2022/04/30 10:49:58;;;;;;;;;12.50;8.00;;;;;43.48;10.71;102246.19;5114374;27;45436;-41
2022/04/30 10:52:27;;;;;;;;;13.00;9.25;;;;;43.33;11.16;102258.72;5114543;27;45280;-40
2022/04/30 10:54:56;;;;;;;;;5.60;5.60;;;;;42.99;11.15;102251.19;5114575;27;45160;-40
2022/04/30 10:57:22;;;;;;;;;9.60;8.20;;;;;42.90;10.64;102242.00;5114317;27;45287;-43
2022/04/30 10:59:58;;;;;;;;;8.00;8.00;;;;;42.67;10.80;102246.94;5114182;27;45293;-40
2022/04/30 11:02:29;;;;;;;;;9.00;9.00;;;;;42.55;11.51;102249.53;5114282;27;45432;-44
2022/04/30 11:04:54;;;;;;;;;9.80;9.80;;;;;42.35;10.75;102246.25;5114534;27;45313;-45
2022/04/30 11:07:21;;;;;;;;;10.00;10.00;;;;;42.33;10.73;102244.91;5114300;27;45597;-41
2022/04/30 11:09:47;;;;;;;;;10.20;10.20;;;;;42.15;10.65;102240.44;5105344;27;45557;-39
2022/04/30 11:12:14;;;;;;;;;8.80;8.80;;;;;42.00;10.93;102239.72;5100311;27;45396;-41
2022/04/30 11:14:40;;;;;;;;;11.80;11.80;;;;;41.53;11.42;102232.94;5100489;27;45327;-41
2022/04/30 11:17:06;;;;;;;;;9.60;9.00;;;;;41.35;10.90;102232.84;5100771;27;45373;-45
2022/04/30 11:19:32;;;;;;;;;10.00;9.25;;;;;41.33;11.21;102228.69;5100003;27;46285;-44
2022/04/30 11:22:00;;;;;;;;;11.50;10.25;;;;;41.09;11.66;102227.09;5100411;27;45232;-44
2022/04/30 11:24:28;;;;;;;;;11.20;11.20;;;;;40.66;11.15;102229.53;5100318;27;45393;-42
2022/04/30 11:27:03;;;;;;;;;9.40;8.20;;;;;40.30;11.29;102219.19;5100579;27;45329;-44
2022/04/30 11:29:29;;;;;;;;;8.40;8.40;;;;;39.80;11.40;102212.72;5100096;27;46069;-39
2022/04/30 11:31:56;;;;;;;;;9.00;8.40;;;;;39.15;11.61;102200.50;5100022;27;46068;-44
2022/04/30 11:34:22;;;;;;;;;7.40;6.20;;;;;38.14;12.17;102194.53;5100177;27;45390;-39
2022/04/30 11:36:50;;;;;;;;;8.00;6.40;;;;;37.13;12.63;102225.00;5100295;27;45229;-40
2022/04/30 11:39:16;;;;;;;;;9.20;6.20;;;;;35.33;13.80;102201.91;5099893;27;46168;-41
2022/04/30 11:41:44;;;;;;;;;7.00;7.00;;;;;33.42;14.44;102208.97;5099898;27;45510;-43
2022/04/30 11:44:10;;;;;;;;;6.00;6.00;;;;;31.73;15.47;102209.00;5100243;27;45350;-41
2022/04/30 11:46:37;;;;;;;;;10.40;8.60;;;;;30.28;16.82;102200.34;5100259;27;45367;-41
2022/04/30 11:49:11;;;;;;;;;11.60;9.80;;;;;28.85;18.02;102194.19;5099501;27;47040;-45